sensor_id;sensor_type;location;lat;lon;timestamp;temperature;humidity
24087;DHT22;22893;50.572;7.234;2023-04-07T00:01:07;21.80;52.10
24087;DHT22;22893;50.572;7.234;2023-04-07T00:03:34;21.80;52.20
24087;DHT22;22893;50.572;7.234;2023-04-07T00:06:03;21.80;52.20
24087;DHT22;22893;50.572;7.234;2023-04-07T00:08:31;21.80;52.20
24087;DHT22;22893;50.572;7.234;2023-04-07T00:10:58;21.80;52.20
24087;DHT22;22893;50.572;7.234;2023-04-07T00:13:26;21.80;52.90
24087;DHT22;22893;50.572;7.234;2023-04-07T00:15:54;21.80;52.20
24087;DHT22;22893;50.572;7.234;2023-04-07T00:18:21;21.70;52.30
24087;DHT22;22893;50.572;7.234;2023-04-07T00:20:49;21.70;52.30
24087;DHT22;22893;50.572;7.234;2023-04-07T00:23:16;21.70;52.40
24087;DHT22;22893;50.572;7.234;2023-04-07T00:25:47;21.80;52.50
24087;DHT22;22893;50.572;7.234;2023-04-07T00:28:15;21.80;52.50
24087;DHT22;22893;50.572;7.234;2023-04-07T00:30:42;21.70;52.40
24087;DHT22;22893;50.572;7.234;2023-04-07T00:33:10;21.70;52.50
24087;DHT22;22893;50.572;7.234;2023-04-07T00:35:37;21.70;52.60
24087;DHT22;22893;50.572;7.234;2023-04-07T00:38:05;21.70;52.50
24087;DHT22;22893;50.572;7.234;2023-04-07T00:40:33;21.70;52.50
24087;DHT22;22893;50.572;7.234;2023-04-07T00:43:00;21.70;52.50
24087;DHT22;22893;50.572;7.234;2023-04-07T00:45:28;21.70;52.50
24087;DHT22;22893;50.572;7.234;2023-04-07T00:47:57;21.70;52.50
24087;DHT22;22893;50.572;7.234;2023-04-07T00:50:24;21.70;53.20
24087;DHT22;22893;50.572;7.234;2023-04-07T00:52:53;21.70;52.50
24087;DHT22;22893;50.572;7.234;2023-04-07T00:55:22;21.70;52.50
24087;DHT22;22893;50.572;7.234;2023-04-07T00:57:51;21.60;52.50
24087;DHT22;22893;50.572;7.234;2023-04-07T01:00:18;21.60;52.70
24087;DHT22;22893;50.572;7.234;2023-04-07T01:02:57;21.60;52.70
24087;DHT22;22893;50.572;7.234;2023-04-07T01:08:20;21.60;52.80
24087;DHT22;22893;50.572;7.234;2023-04-07T01:11:04;21.60;52.40
24087;DHT22;22893;50.572;7.234;2023-04-07T01:13:33;21.60;52.30
24087;DHT22;22893;50.572;7.234;2023-04-07T01:16:04;21.60;52.20
24087;DHT22;22893;50.572;7.234;2023-04-07T01:18:32;21.60;52.60
24087;DHT22;22893;50.572;7.234;2023-04-07T01:21:06;21.60;52.70
24087;DHT22;22893;50.572;7.234;2023-04-07T01:26:29;21.60;53.00
24087;DHT22;22893;50.572;7.234;2023-04-07T01:29:26;21.60;53.10
24087;DHT22;22893;50.572;7.234;2023-04-07T01:31:59;21.60;53.20
24087;DHT22;22893;50.572;7.234;2023-04-07T01:34:29;21.60;53.20
24087;DHT22;22893;50.572;7.234;2023-04-07T01:36:58;21.60;53.20
24087;DHT22;22893;50.572;7.234;2023-04-07T01:39:27;21.50;53.30
24087;DHT22;22893;50.572;7.234;2023-04-07T01:41:56;21.50;53.30
24087;DHT22;22893;50.572;7.234;2023-04-07T01:44:25;21.50;53.30
24087;DHT22;22893;50.572;7.234;2023-04-07T01:46:54;21.50;53.40
24087;DHT22;22893;50.572;7.234;2023-04-07T01:49:23;21.50;53.30
24087;DHT22;22893;50.572;7.234;2023-04-07T01:51:53;21.50;53.50
24087;DHT22;22893;50.572;7.234;2023-04-07T01:54:21;21.50;53.50
24087;DHT22;22893;50.572;7.234;2023-04-07T01:56:49;21.50;53.50
24087;DHT22;22893;50.572;7.234;2023-04-07T01:59:17;21.50;53.50
24087;DHT22;22893;50.572;7.234;2023-04-07T02:01:44;21.50;53.50
24087;DHT22;22893;50.572;7.234;2023-04-07T02:04:16;21.50;53.60
24087;DHT22;22893;50.572;7.234;2023-04-07T02:06:51;21.50;53.70
24087;DHT22;22893;50.572;7.234;2023-04-07T02:09:15;21.50;53.70
24087;DHT22;22893;50.572;7.234;2023-04-07T02:11:44;21.50;53.70
24087;DHT22;22893;50.572;7.234;2023-04-07T02:14:13;21.50;53.70
24087;DHT22;22893;50.572;7.234;2023-04-07T02:16:42;21.50;53.70
24087;DHT22;22893;50.572;7.234;2023-04-07T02:19:10;21.50;53.80
24087;DHT22;22893;50.572;7.234;2023-04-07T02:21:39;21.50;53.70
24087;DHT22;22893;50.572;7.234;2023-04-07T02:24:07;21.40;53.80
24087;DHT22;22893;50.572;7.234;2023-04-07T02:26:36;21.40;53.90
24087;DHT22;22893;50.572;7.234;2023-04-07T02:29:04;21.40;53.40
24087;DHT22;22893;50.572;7.234;2023-04-07T02:31:32;21.40;54.00
24087;DHT22;22893;50.572;7.234;2023-04-07T02:34:00;21.40;53.90
24087;DHT22;22893;50.572;7.234;2023-04-07T02:36:27;21.40;54.00
24087;DHT22;22893;50.572;7.234;2023-04-07T02:38:55;21.40;54.00
24087;DHT22;22893;50.572;7.234;2023-04-07T02:41:22;21.40;54.00
24087;DHT22;22893;50.572;7.234;2023-04-07T02:43:50;21.40;54.10
24087;DHT22;22893;50.572;7.234;2023-04-07T02:46:17;21.40;54.20
24087;DHT22;22893;50.572;7.234;2023-04-07T02:48:45;21.40;54.20
24087;DHT22;22893;50.572;7.234;2023-04-07T02:51:12;21.40;54.20
24087;DHT22;22893;50.572;7.234;2023-04-07T02:53:40;21.40;54.30
24087;DHT22;22893;50.572;7.234;2023-04-07T02:56:07;21.40;54.30
24087;DHT22;22893;50.572;7.234;2023-04-07T02:58:35;21.30;54.30
24087;DHT22;22893;50.572;7.234;2023-04-07T03:01:03;21.30;54.40
24087;DHT22;22893;50.572;7.234;2023-04-07T03:03:30;21.30;54.40
24087;DHT22;22893;50.572;7.234;2023-04-07T03:05:58;21.40;54.40
24087;DHT22;22893;50.572;7.234;2023-04-07T03:08:26;21.40;54.50
24087;DHT22;22893;50.572;7.234;2023-04-07T03:10:53;21.30;54.40
24087;DHT22;22893;50.572;7.234;2023-04-07T03:13:21;21.30;54.60
24087;DHT22;22893;50.572;7.234;2023-04-07T03:15:48;21.40;54.70
24087;DHT22;22893;50.572;7.234;2023-04-07T03:18:16;21.30;54.60
24087;DHT22;22893;50.572;7.234;2023-04-07T03:20:44;21.30;54.50
24087;DHT22;22893;50.572;7.234;2023-04-07T03:23:13;21.30;55.30
24087;DHT22;22893;50.572;7.234;2023-04-07T03:25:41;21.30;54.60
24087;DHT22;22893;50.572;7.234;2023-04-07T03:28:08;21.30;54.60
24087;DHT22;22893;50.572;7.234;2023-04-07T03:30:36;21.30;54.70
24087;DHT22;22893;50.572;7.234;2023-04-07T03:33:04;21.30;54.80
24087;DHT22;22893;50.572;7.234;2023-04-07T03:35:31;21.20;54.80
24087;DHT22;22893;50.572;7.234;2023-04-07T03:37:59;21.20;54.80
24087;DHT22;22893;50.572;7.234;2023-04-07T03:40:26;21.30;54.50
24087;DHT22;22893;50.572;7.234;2023-04-07T03:42:54;21.30;54.30
24087;DHT22;22893;50.572;7.234;2023-04-07T03:45:21;21.40;54.20
24087;DHT22;22893;50.572;7.234;2023-04-07T03:47:49;21.40;54.20
24087;DHT22;22893;50.572;7.234;2023-04-07T03:50:17;21.50;54.20
24087;DHT22;22893;50.572;7.234;2023-04-07T03:52:45;21.50;54.20
24087;DHT22;22893;50.572;7.234;2023-04-07T03:55:12;21.50;54.00
24087;DHT22;22893;50.572;7.234;2023-04-07T03:57:41;21.50;54.00
24087;DHT22;22893;50.572;7.234;2023-04-07T04:00:09;21.50;54.00
24087;DHT22;22893;50.572;7.234;2023-04-07T04:02:37;21.50;53.80
24087;DHT22;22893;50.572;7.234;2023-04-07T04:05:04;21.60;53.80
24087;DHT22;22893;50.572;7.234;2023-04-07T04:07:51;21.60;53.80
24087;DHT22;22893;50.572;7.234;2023-04-07T04:10:19;21.60;53.60
24087;DHT22;22893;50.572;7.234;2023-04-07T04:12:48;21.60;53.80
24087;DHT22;22893;50.572;7.234;2023-04-07T04:15:16;21.70;53.70
24087;DHT22;22893;50.572;7.234;2023-04-07T04:17:44;21.70;53.30
24087;DHT22;22893;50.572;7.234;2023-04-07T04:20:11;21.70;53.70
24087;DHT22;22893;50.572;7.234;2023-04-07T04:22:39;21.70;53.60
24087;DHT22;22893;50.572;7.234;2023-04-07T04:25:07;21.70;53.70
24087;DHT22;22893;50.572;7.234;2023-04-07T04:27:34;21.80;53.80
24087;DHT22;22893;50.572;7.234;2023-04-07T04:30:02;21.70;53.60
24087;DHT22;22893;50.572;7.234;2023-04-07T04:32:30;21.80;53.50
24087;DHT22;22893;50.572;7.234;2023-04-07T04:34:58;21.80;53.70
24087;DHT22;22893;50.572;7.234;2023-04-07T04:37:26;21.80;53.70
24087;DHT22;22893;50.572;7.234;2023-04-07T04:39:53;21.80;53.70
24087;DHT22;22893;50.572;7.234;2023-04-07T04:42:21;21.80;53.60
24087;DHT22;22893;50.572;7.234;2023-04-07T04:44:48;21.70;53.60
24087;DHT22;22893;50.572;7.234;2023-04-07T04:47:16;21.80;53.70
24087;DHT22;22893;50.572;7.234;2023-04-07T04:49:44;21.80;53.80
24087;DHT22;22893;50.572;7.234;2023-04-07T04:52:12;21.80;53.60
24087;DHT22;22893;50.572;7.234;2023-04-07T04:54:40;21.80;53.50
24087;DHT22;22893;50.572;7.234;2023-04-07T04:57:07;21.80;53.70
24087;DHT22;22893;50.572;7.234;2023-04-07T04:59:35;21.80;53.70
24087;DHT22;22893;50.572;7.234;2023-04-07T05:02:02;21.90;53.70
24087;DHT22;22893;50.572;7.234;2023-04-07T05:04:30;21.80;53.70
24087;DHT22;22893;50.572;7.234;2023-04-07T05:06:57;21.90;53.80
24087;DHT22;22893;50.572;7.234;2023-04-07T05:09:25;21.80;53.90
24087;DHT22;22893;50.572;7.234;2023-04-07T05:11:53;21.90;53.80
24087;DHT22;22893;50.572;7.234;2023-04-07T05:14:20;21.90;53.60
24087;DHT22;22893;50.572;7.234;2023-04-07T05:16:47;21.90;53.30
24087;DHT22;22893;50.572;7.234;2023-04-07T05:19:15;21.90;53.10
24087;DHT22;22893;50.572;7.234;2023-04-07T05:21:43;21.90;53.00
24087;DHT22;22893;50.572;7.234;2023-04-07T05:24:10;21.90;53.10
24087;DHT22;22893;50.572;7.234;2023-04-07T05:26:38;21.90;53.10
24087;DHT22;22893;50.572;7.234;2023-04-07T05:29:05;22.00;53.30
24087;DHT22;22893;50.572;7.234;2023-04-07T05:31:33;22.00;53.40
24087;DHT22;22893;50.572;7.234;2023-04-07T05:34:02;22.00;53.30
24087;DHT22;22893;50.572;7.234;2023-04-07T05:36:30;22.00;53.30
24087;DHT22;22893;50.572;7.234;2023-04-07T05:38:58;22.00;53.40
24087;DHT22;22893;50.572;7.234;2023-04-07T05:41:25;22.00;53.40
24087;DHT22;22893;50.572;7.234;2023-04-07T05:43:53;22.00;53.50
24087;DHT22;22893;50.572;7.234;2023-04-07T05:46:21;22.00;53.50
24087;DHT22;22893;50.572;7.234;2023-04-07T05:48:49;22.00;53.40
24087;DHT22;22893;50.572;7.234;2023-04-07T05:51:17;22.00;53.50
24087;DHT22;22893;50.572;7.234;2023-04-07T05:53:44;22.00;53.30
24087;DHT22;22893;50.572;7.234;2023-04-07T05:56:12;22.10;53.50
24087;DHT22;22893;50.572;7.234;2023-04-07T05:58:39;22.10;53.50
24087;DHT22;22893;50.572;7.234;2023-04-07T06:01:07;22.10;53.50
24087;DHT22;22893;50.572;7.234;2023-04-07T06:03:34;22.10;53.50
24087;DHT22;22893;50.572;7.234;2023-04-07T06:06:02;22.10;53.70
24087;DHT22;22893;50.572;7.234;2023-04-07T06:08:30;22.10;53.70
24087;DHT22;22893;50.572;7.234;2023-04-07T06:10:57;22.10;53.80
24087;DHT22;22893;50.572;7.234;2023-04-07T06:13:25;22.10;53.40
24087;DHT22;22893;50.572;7.234;2023-04-07T06:15:54;22.10;53.50
24087;DHT22;22893;50.572;7.234;2023-04-07T06:18:22;22.10;53.50
24087;DHT22;22893;50.572;7.234;2023-04-07T06:20:50;22.10;53.50
24087;DHT22;22893;50.572;7.234;2023-04-07T06:23:17;22.10;53.50
24087;DHT22;22893;50.572;7.234;2023-04-07T06:25:45;22.10;53.80
24087;DHT22;22893;50.572;7.234;2023-04-07T06:28:14;22.10;54.10
24087;DHT22;22893;50.572;7.234;2023-04-07T06:30:42;22.10;53.70
24087;DHT22;22893;50.572;7.234;2023-04-07T06:33:09;22.10;53.90
24087;DHT22;22893;50.572;7.234;2023-04-07T06:35:39;22.10;53.70
24087;DHT22;22893;50.572;7.234;2023-04-07T06:38:07;22.10;53.50
24087;DHT22;22893;50.572;7.234;2023-04-07T06:40:36;22.10;53.90
24087;DHT22;22893;50.572;7.234;2023-04-07T06:43:04;22.10;53.90
24087;DHT22;22893;50.572;7.234;2023-04-07T06:45:31;22.10;53.90
24087;DHT22;22893;50.572;7.234;2023-04-07T06:47:59;22.10;53.80
24087;DHT22;22893;50.572;7.234;2023-04-07T06:50:26;22.10;53.80
24087;DHT22;22893;50.572;7.234;2023-04-07T06:52:54;22.10;53.90
24087;DHT22;22893;50.572;7.234;2023-04-07T06:55:21;22.10;53.70
24087;DHT22;22893;50.572;7.234;2023-04-07T06:57:49;22.10;53.80
24087;DHT22;22893;50.572;7.234;2023-04-07T07:00:18;22.10;53.80
24087;DHT22;22893;50.572;7.234;2023-04-07T07:02:46;22.20;53.70
24087;DHT22;22893;50.572;7.234;2023-04-07T07:05:13;22.10;53.90
24087;DHT22;22893;50.572;7.234;2023-04-07T07:07:41;22.20;53.80
24087;DHT22;22893;50.572;7.234;2023-04-07T07:10:09;22.10;53.90
24087;DHT22;22893;50.572;7.234;2023-04-07T07:12:36;22.10;53.80
24087;DHT22;22893;50.572;7.234;2023-04-07T07:15:05;22.20;53.50
24087;DHT22;22893;50.572;7.234;2023-04-07T07:17:33;22.20;53.50
24087;DHT22;22893;50.572;7.234;2023-04-07T07:20:01;22.20;53.50
24087;DHT22;22893;50.572;7.234;2023-04-07T07:22:29;22.10;53.60
24087;DHT22;22893;50.572;7.234;2023-04-07T07:24:56;22.10;53.50
24087;DHT22;22893;50.572;7.234;2023-04-07T07:27:24;22.20;53.70
24087;DHT22;22893;50.572;7.234;2023-04-07T07:29:51;22.20;53.60
24087;DHT22;22893;50.572;7.234;2023-04-07T07:32:19;22.20;53.70
24087;DHT22;22893;50.572;7.234;2023-04-07T07:34:46;22.20;53.60
24087;DHT22;22893;50.572;7.234;2023-04-07T07:37:14;22.20;53.50
24087;DHT22;22893;50.572;7.234;2023-04-07T07:39:42;22.20;53.50
24087;DHT22;22893;50.572;7.234;2023-04-07T07:42:09;22.20;53.30
24087;DHT22;22893;50.572;7.234;2023-04-07T07:44:37;22.20;53.60
24087;DHT22;22893;50.572;7.234;2023-04-07T07:47:04;22.20;53.30
24087;DHT22;22893;50.572;7.234;2023-04-07T07:49:32;22.20;53.50
24087;DHT22;22893;50.572;7.234;2023-04-07T07:51:59;22.20;53.40
24087;DHT22;22893;50.572;7.234;2023-04-07T07:54:28;22.20;53.60
24087;DHT22;22893;50.572;7.234;2023-04-07T07:56:55;22.20;53.30
24087;DHT22;22893;50.572;7.234;2023-04-07T07:59:23;22.20;53.50
24087;DHT22;22893;50.572;7.234;2023-04-07T08:01:50;22.20;53.60
24087;DHT22;22893;50.572;7.234;2023-04-07T08:04:18;22.20;53.30
24087;DHT22;22893;50.572;7.234;2023-04-07T08:06:46;22.20;53.40
24087;DHT22;22893;50.572;7.234;2023-04-07T08:09:13;22.20;53.40
24087;DHT22;22893;50.572;7.234;2023-04-07T08:11:41;22.20;53.10
24087;DHT22;22893;50.572;7.234;2023-04-07T08:14:09;22.20;53.90
24087;DHT22;22893;50.572;7.234;2023-04-07T08:16:37;22.20;53.30
24087;DHT22;22893;50.572;7.234;2023-04-07T08:19:04;22.20;53.60
24087;DHT22;22893;50.572;7.234;2023-04-07T08:21:32;22.20;53.50
24087;DHT22;22893;50.572;7.234;2023-04-07T08:23:59;22.20;53.20
24087;DHT22;22893;50.572;7.234;2023-04-07T08:26:27;22.20;53.10
24087;DHT22;22893;50.572;7.234;2023-04-07T08:28:54;22.20;53.50
24087;DHT22;22893;50.572;7.234;2023-04-07T08:31:22;22.20;53.40
24087;DHT22;22893;50.572;7.234;2023-04-07T08:33:50;22.30;53.50
24087;DHT22;22893;50.572;7.234;2023-04-07T08:36:22;22.30;53.60
24087;DHT22;22893;50.572;7.234;2023-04-07T08:38:50;22.20;53.30
24087;DHT22;22893;50.572;7.234;2023-04-07T08:41:23;22.20;53.50
24087;DHT22;22893;50.572;7.234;2023-04-07T08:43:49;22.20;53.40
24087;DHT22;22893;50.572;7.234;2023-04-07T08:46:20;22.30;53.50
24087;DHT22;22893;50.572;7.234;2023-04-07T08:48:51;22.30;53.50
24087;DHT22;22893;50.572;7.234;2023-04-07T08:51:41;22.30;53.30
24087;DHT22;22893;50.572;7.234;2023-04-07T08:54:11;22.20;53.20
24087;DHT22;22893;50.572;7.234;2023-04-07T08:56:40;22.30;53.40
24087;DHT22;22893;50.572;7.234;2023-04-07T08:59:15;22.20;53.40
24087;DHT22;22893;50.572;7.234;2023-04-07T09:01:39;22.30;53.50
24087;DHT22;22893;50.572;7.234;2023-04-07T09:04:09;22.30;53.50
24087;DHT22;22893;50.572;7.234;2023-04-07T09:06:37;22.30;53.50
24087;DHT22;22893;50.572;7.234;2023-04-07T09:09:04;22.30;53.50
24087;DHT22;22893;50.572;7.234;2023-04-07T09:11:35;22.30;53.60
24087;DHT22;22893;50.572;7.234;2023-04-07T09:14:02;22.30;53.50
24087;DHT22;22893;50.572;7.234;2023-04-07T09:16:30;22.30;53.50
24087;DHT22;22893;50.572;7.234;2023-04-07T09:18:58;22.30;53.50
24087;DHT22;22893;50.572;7.234;2023-04-07T09:21:26;22.30;53.50
24087;DHT22;22893;50.572;7.234;2023-04-07T09:23:55;22.30;53.50
24087;DHT22;22893;50.572;7.234;2023-04-07T09:26:24;22.30;53.50
24087;DHT22;22893;50.572;7.234;2023-04-07T09:28:57;22.30;53.60
24087;DHT22;22893;50.572;7.234;2023-04-07T09:31:46;22.30;53.50
24087;DHT22;22893;50.572;7.234;2023-04-07T09:34:25;22.30;53.50
24087;DHT22;22893;50.572;7.234;2023-04-07T09:36:54;22.30;53.60
24087;DHT22;22893;50.572;7.234;2023-04-07T09:39:23;22.30;53.50
24087;DHT22;22893;50.572;7.234;2023-04-07T09:41:50;22.30;53.50
24087;DHT22;22893;50.572;7.234;2023-04-07T09:44:19;22.30;53.50
24087;DHT22;22893;50.572;7.234;2023-04-07T09:46:57;22.30;53.50
24087;DHT22;22893;50.572;7.234;2023-04-07T09:49:25;22.30;53.60
24087;DHT22;22893;50.572;7.234;2023-04-07T09:51:57;22.30;53.60
24087;DHT22;22893;50.572;7.234;2023-04-07T09:54:37;22.30;53.60
24087;DHT22;22893;50.572;7.234;2023-04-07T09:57:06;22.30;53.50
24087;DHT22;22893;50.572;7.234;2023-04-07T09:59:36;22.30;53.40
24087;DHT22;22893;50.572;7.234;2023-04-07T10:02:04;22.30;53.50
24087;DHT22;22893;50.572;7.234;2023-04-07T10:04:32;22.30;53.60
24087;DHT22;22893;50.572;7.234;2023-04-07T10:07:00;22.30;53.50
24087;DHT22;22893;50.572;7.234;2023-04-07T10:09:30;22.40;53.60
24087;DHT22;22893;50.572;7.234;2023-04-07T10:11:58;22.30;53.60
24087;DHT22;22893;50.572;7.234;2023-04-07T10:14:29;22.40;53.60
24087;DHT22;22893;50.572;7.234;2023-04-07T10:17:00;22.40;53.70
24087;DHT22;22893;50.572;7.234;2023-04-07T10:19:30;22.30;53.80
24087;DHT22;22893;50.572;7.234;2023-04-07T10:22:01;22.30;53.90
24087;DHT22;22893;50.572;7.234;2023-04-07T10:27:06;22.30;54.00
24087;DHT22;22893;50.572;7.234;2023-04-07T10:29:45;22.40;53.80
24087;DHT22;22893;50.572;7.234;2023-04-07T10:32:14;22.30;53.50
24087;DHT22;22893;50.572;7.234;2023-04-07T10:37:24;22.40;53.80
24087;DHT22;22893;50.572;7.234;2023-04-07T10:45:10;22.40;54.20
24087;DHT22;22893;50.572;7.234;2023-04-07T10:50:26;22.40;54.00
24087;DHT22;22893;50.572;7.234;2023-04-07T10:53:13;22.40;54.20
24087;DHT22;22893;50.572;7.234;2023-04-07T10:55:39;22.40;53.90
24087;DHT22;22893;50.572;7.234;2023-04-07T10:58:23;22.40;54.00
24087;DHT22;22893;50.572;7.234;2023-04-07T11:03:39;22.40;54.20
24087;DHT22;22893;50.572;7.234;2023-04-07T11:06:14;22.40;54.20
24087;DHT22;22893;50.572;7.234;2023-04-07T11:08:43;22.40;54.20
24087;DHT22;22893;50.572;7.234;2023-04-07T11:11:13;22.40;54.20
24087;DHT22;22893;50.572;7.234;2023-04-07T11:13:49;22.40;54.00
24087;DHT22;22893;50.572;7.234;2023-04-07T11:16:18;22.40;54.20
24087;DHT22;22893;50.572;7.234;2023-04-07T11:18:46;22.40;54.30
24087;DHT22;22893;50.572;7.234;2023-04-07T11:21:18;22.40;54.20
24087;DHT22;22893;50.572;7.234;2023-04-07T11:23:46;22.40;54.10
24087;DHT22;22893;50.572;7.234;2023-04-07T11:26:15;22.40;54.20
24087;DHT22;22893;50.572;7.234;2023-04-07T11:28:46;22.40;54.20
24087;DHT22;22893;50.572;7.234;2023-04-07T11:31:22;22.40;54.10
24087;DHT22;22893;50.572;7.234;2023-04-07T11:33:54;22.40;54.20
24087;DHT22;22893;50.572;7.234;2023-04-07T11:36:32;22.40;54.10
24087;DHT22;22893;50.572;7.234;2023-04-07T11:39:01;22.40;54.10
24087;DHT22;22893;50.572;7.234;2023-04-07T11:41:30;22.40;54.10
24087;DHT22;22893;50.572;7.234;2023-04-07T11:44:11;22.40;54.10
24087;DHT22;22893;50.572;7.234;2023-04-07T11:46:35;22.40;54.10
24087;DHT22;22893;50.572;7.234;2023-04-07T11:49:13;22.40;54.30
24087;DHT22;22893;50.572;7.234;2023-04-07T11:51:43;22.40;54.30
24087;DHT22;22893;50.572;7.234;2023-04-07T11:54:11;22.40;54.40
24087;DHT22;22893;50.572;7.234;2023-04-07T11:56:46;22.50;54.80
24087;DHT22;22893;50.572;7.234;2023-04-07T11:59:24;22.40;54.70
24087;DHT22;22893;50.572;7.234;2023-04-07T12:01:49;22.50;54.90
24087;DHT22;22893;50.572;7.234;2023-04-07T12:04:18;22.40;54.80
24087;DHT22;22893;50.572;7.234;2023-04-07T12:06:47;22.40;54.80
24087;DHT22;22893;50.572;7.234;2023-04-07T12:09:33;22.40;54.80
24087;DHT22;22893;50.572;7.234;2023-04-07T12:12:03;22.50;55.00
24087;DHT22;22893;50.572;7.234;2023-04-07T12:14:32;22.50;55.00
24087;DHT22;22893;50.572;7.234;2023-04-07T12:17:00;22.50;54.90
24087;DHT22;22893;50.572;7.234;2023-04-07T12:19:30;22.50;55.10
24087;DHT22;22893;50.572;7.234;2023-04-07T12:22:02;22.50;55.10
24087;DHT22;22893;50.572;7.234;2023-04-07T12:24:30;22.50;55.40
24087;DHT22;22893;50.572;7.234;2023-04-07T12:26:58;22.50;55.00
24087;DHT22;22893;50.572;7.234;2023-04-07T12:29:25;22.50;55.30
24087;DHT22;22893;50.572;7.234;2023-04-07T12:31:53;22.50;55.40
24087;DHT22;22893;50.572;7.234;2023-04-07T12:34:21;22.50;55.40
24087;DHT22;22893;50.572;7.234;2023-04-07T12:36:49;22.50;55.40
24087;DHT22;22893;50.572;7.234;2023-04-07T12:39:18;22.50;55.40
24087;DHT22;22893;50.572;7.234;2023-04-07T12:41:46;22.60;55.20
24087;DHT22;22893;50.572;7.234;2023-04-07T12:44:15;22.50;55.50
24087;DHT22;22893;50.572;7.234;2023-04-07T12:46:46;22.50;55.30
24087;DHT22;22893;50.572;7.234;2023-04-07T12:49:13;22.60;55.20
24087;DHT22;22893;50.572;7.234;2023-04-07T12:51:42;22.60;55.20
24087;DHT22;22893;50.572;7.234;2023-04-07T12:54:09;22.50;55.10
24087;DHT22;22893;50.572;7.234;2023-04-07T12:56:45;22.50;55.20
24087;DHT22;22893;50.572;7.234;2023-04-07T12:59:15;22.60;55.10
24087;DHT22;22893;50.572;7.234;2023-04-07T13:01:43;22.60;55.10
24087;DHT22;22893;50.572;7.234;2023-04-07T13:04:12;22.60;55.30
24087;DHT22;22893;50.572;7.234;2023-04-07T13:06:39;22.60;55.20
24087;DHT22;22893;50.572;7.234;2023-04-07T13:09:07;22.60;55.30
24087;DHT22;22893;50.572;7.234;2023-04-07T13:11:34;22.60;55.00
24087;DHT22;22893;50.572;7.234;2023-04-07T13:14:02;22.60;55.00
24087;DHT22;22893;50.572;7.234;2023-04-07T13:16:30;22.60;55.10
24087;DHT22;22893;50.572;7.234;2023-04-07T13:18:58;22.60;54.90
24087;DHT22;22893;50.572;7.234;2023-04-07T13:21:27;22.60;55.90
24087;DHT22;22893;50.572;7.234;2023-04-07T13:23:56;22.60;55.20
24087;DHT22;22893;50.572;7.234;2023-04-07T13:26:23;22.60;54.90
24087;DHT22;22893;50.572;7.234;2023-04-07T13:28:52;22.60;55.30
24087;DHT22;22893;50.572;7.234;2023-04-07T13:31:19;22.60;55.10
24087;DHT22;22893;50.572;7.234;2023-04-07T13:33:48;22.60;55.30
24087;DHT22;22893;50.572;7.234;2023-04-07T13:36:16;22.60;55.30
24087;DHT22;22893;50.572;7.234;2023-04-07T13:38:44;22.60;55.30
24087;DHT22;22893;50.572;7.234;2023-04-07T13:41:11;22.60;55.30
24087;DHT22;22893;50.572;7.234;2023-04-07T13:43:38;22.60;55.20
24087;DHT22;22893;50.572;7.234;2023-04-07T13:46:06;22.60;55.20
24087;DHT22;22893;50.572;7.234;2023-04-07T13:48:34;22.60;55.20
24087;DHT22;22893;50.572;7.234;2023-04-07T13:51:01;22.60;55.20
24087;DHT22;22893;50.572;7.234;2023-04-07T13:53:29;22.60;55.10
24087;DHT22;22893;50.572;7.234;2023-04-07T13:55:57;22.60;55.20
24087;DHT22;22893;50.572;7.234;2023-04-07T13:58:24;22.70;55.10
24087;DHT22;22893;50.572;7.234;2023-04-07T14:00:52;22.60;55.10
24087;DHT22;22893;50.572;7.234;2023-04-07T14:03:20;22.70;55.30
24087;DHT22;22893;50.572;7.234;2023-04-07T14:05:48;22.70;55.30
24087;DHT22;22893;50.572;7.234;2023-04-07T14:08:15;22.70;55.10
24087;DHT22;22893;50.572;7.234;2023-04-07T14:10:44;22.70;55.10
24087;DHT22;22893;50.572;7.234;2023-04-07T14:13:12;22.70;55.00
24087;DHT22;22893;50.572;7.234;2023-04-07T14:15:39;22.70;55.30
24087;DHT22;22893;50.572;7.234;2023-04-07T14:18:07;22.60;54.70
24087;DHT22;22893;50.572;7.234;2023-04-07T14:20:35;22.60;54.80
24087;DHT22;22893;50.572;7.234;2023-04-07T14:23:03;22.60;54.90
24087;DHT22;22893;50.572;7.234;2023-04-07T14:25:31;22.70;54.80
24087;DHT22;22893;50.572;7.234;2023-04-07T14:27:59;22.60;55.00
24087;DHT22;22893;50.572;7.234;2023-04-07T14:30:26;22.70;55.10
24087;DHT22;22893;50.572;7.234;2023-04-07T14:32:56;22.60;55.00
24087;DHT22;22893;50.572;7.234;2023-04-07T14:35:23;22.70;55.10
24087;DHT22;22893;50.572;7.234;2023-04-07T14:37:51;22.60;55.00
24087;DHT22;22893;50.572;7.234;2023-04-07T14:40:20;22.60;55.10
24087;DHT22;22893;50.572;7.234;2023-04-07T14:42:48;22.70;55.00
24087;DHT22;22893;50.572;7.234;2023-04-07T14:45:16;22.70;55.30
24087;DHT22;22893;50.572;7.234;2023-04-07T14:47:43;22.70;55.40
24087;DHT22;22893;50.572;7.234;2023-04-07T14:50:11;22.70;55.30
24087;DHT22;22893;50.572;7.234;2023-04-07T14:52:39;22.70;55.20
24087;DHT22;22893;50.572;7.234;2023-04-07T14:55:07;22.70;55.30
24087;DHT22;22893;50.572;7.234;2023-04-07T14:57:34;22.70;55.30
24087;DHT22;22893;50.572;7.234;2023-04-07T15:00:03;22.70;55.20
24087;DHT22;22893;50.572;7.234;2023-04-07T15:02:33;22.70;55.50
24087;DHT22;22893;50.572;7.234;2023-04-07T15:05:02;22.70;55.50
24087;DHT22;22893;50.572;7.234;2023-04-07T15:07:30;22.70;55.50
24087;DHT22;22893;50.572;7.234;2023-04-07T15:09:58;22.70;55.60
24087;DHT22;22893;50.572;7.234;2023-04-07T15:12:26;22.70;55.60
24087;DHT22;22893;50.572;7.234;2023-04-07T15:14:55;22.70;55.70
24087;DHT22;22893;50.572;7.234;2023-04-07T15:17:23;22.70;55.70
24087;DHT22;22893;50.572;7.234;2023-04-07T15:19:50;22.70;55.60
24087;DHT22;22893;50.572;7.234;2023-04-07T15:22:18;22.70;55.60
24087;DHT22;22893;50.572;7.234;2023-04-07T15:24:45;22.70;55.70
24087;DHT22;22893;50.572;7.234;2023-04-07T15:27:13;22.70;55.90
24087;DHT22;22893;50.572;7.234;2023-04-07T15:29:41;22.70;55.90
24087;DHT22;22893;50.572;7.234;2023-04-07T15:32:09;22.80;56.10
24087;DHT22;22893;50.572;7.234;2023-04-07T15:34:36;22.70;56.00
24087;DHT22;22893;50.572;7.234;2023-04-07T15:37:04;22.70;56.10
24087;DHT22;22893;50.572;7.234;2023-04-07T15:39:31;22.70;56.10
24087;DHT22;22893;50.572;7.234;2023-04-07T15:41:59;22.70;56.10
24087;DHT22;22893;50.572;7.234;2023-04-07T15:44:27;22.70;56.10
24087;DHT22;22893;50.572;7.234;2023-04-07T15:46:54;22.70;56.10
24087;DHT22;22893;50.572;7.234;2023-04-07T15:49:22;22.80;56.20
24087;DHT22;22893;50.572;7.234;2023-04-07T15:51:49;22.70;56.10
24087;DHT22;22893;50.572;7.234;2023-04-07T15:54:17;22.70;56.20
24087;DHT22;22893;50.572;7.234;2023-04-07T15:56:44;22.80;56.50
24087;DHT22;22893;50.572;7.234;2023-04-07T15:59:12;22.70;56.20
24087;DHT22;22893;50.572;7.234;2023-04-07T16:01:41;22.70;56.50